Time;durP1;ratioP1;P1;durP2;ratioP2;P2;SDS_P1;SDS_P2;PMS_P1;PMS_P2;Temp;Humidity;BMP_temperature;BMP_pressure;BME280_temperature;BME280_humidity;BME280_pressure;Samples;Min_cycle;Max_cycle;Signal;HPM_P1;HPM_P2
2021/10/21 00:01:16;;;;;;;1.33;0.90;;;;;;;;;;4534712;28;20037;-63
2021/10/21 00:03:27;;;;;;;1.83;0.80;;;;;;;;;;4514721;28;20805;-62
2021/10/21 00:05:37;;;;;;;1.73;1.00;;;;;;;;;;4532678;28;20116;-63
2021/10/21 00:07:48;;;;;;;1.13;1.03;;;;;;;;;;4518698;28;20043;-63
2021/10/21 00:10:01;;;;;;;1.57;1.13;;;;;;;;;;4533906;28;20107;-62
2021/10/21 00:12:12;;;;;;;1.02;0.93;;;;;;;;;;4532778;28;20584;-63
2021/10/21 00:14:22;;;;;;;1.67;0.83;;;;;;;;;;4531197;28;20108;-63
2021/10/21 00:16:33;;;;;;;1.63;1.00;;;;;;;;;;4533846;28;20065;-62
2021/10/21 00:18:43;;;;;;;1.77;1.23;;;;;;;;;;4533964;28;20081;-62
2021/10/21 00:20:54;;;;;;;0.87;0.80;;;;;;;;;;4522355;28;20037;-63
2021/10/21 00:23:04;;;;;;;1.20;0.90;;;;;;;;;;4533546;28;20500;-63
2021/10/21 00:25:15;;;;;;;1.23;1.03;;;;;;;;;;4534717;28;20052;-63
2021/10/21 00:27:25;;;;;;;2.03;0.90;;;;;;;;;;4533284;28;20056;-63
2021/10/21 00:29:35;;;;;;;1.10;1.00;;;;;;;;;;4533799;28;20033;-63
2021/10/21 00:31:46;;;;;;;0.87;0.80;;;;;;;;;;4532175;28;20033;-63
2021/10/21 00:33:57;;;;;;;1.43;0.97;;;;;;;;;;4533467;28;20041;-63
2021/10/21 00:36:07;;;;;;;1.00;0.80;;;;;;;;;;4533723;28;21041;-63
2021/10/21 00:38:17;;;;;;;0.77;0.77;;;;;;;;;;4534196;28;20065;-63
2021/10/21 00:40:28;;;;;;;1.13;0.87;;;;;;;;;;4529985;28;20576;-63
2021/10/21 00:42:38;;;;;;;1.17;0.73;;;;;;;;;;4532204;28;20033;-62
2021/10/21 00:44:49;;;;;;;1.97;1.10;;;;;;;;;;4523226;28;20415;-63
2021/10/21 00:47:00;;;;;;;1.03;0.70;;;;;;;;;;4533312;28;20037;-62
2021/10/21 00:49:10;;;;;;;2.08;1.08;;;;;;;;;;4534055;28;20033;-64
2021/10/21 00:51:20;;;;;;;1.93;1.10;;;;;;;;;;4500037;28;20045;-63
2021/10/21 00:53:31;;;;;;;1.23;1.03;;;;;;;;;;4531668;28;31803;-62
2021/10/21 00:55:42;;;;;;;1.40;0.87;;;;;;;;;;4520145;28;20496;-62
2021/10/21 00:57:52;;;;;;;1.23;0.80;;;;;;;;;;4531021;28;24079;-63
2021/10/21 01:00:03;;;;;;;0.97;0.80;;;;;;;;;;4517078;28;20951;-62
2021/10/21 01:02:14;;;;;;;1.55;1.00;;;;;;;;;;4508300;28;20590;-63
2021/10/21 01:04:24;;;;;;;1.27;0.80;;;;;;;;;;4531438;28;20048;-63
2021/10/21 01:06:35;;;;;;;1.00;0.90;;;;;;;;;;4521588;28;20024;-63
2021/10/21 01:08:46;;;;;;;1.70;0.90;;;;;;;;;;4533154;28;20029;-63
2021/10/21 01:10:57;;;;;;;1.02;0.77;;;;;;;;;;4535409;28;20079;-63
2021/10/21 01:13:07;;;;;;;0.90;0.80;;;;;;;;;;4531913;28;25082;-63
2021/10/21 01:15:26;;;;;;;1.77;0.80;;;;;;;;;;4528762;28;20401;-63
2021/10/21 01:17:36;;;;;;;1.75;0.90;;;;;;;;;;4515223;28;20028;-63
2021/10/21 01:19:50;;;;;;;1.90;0.90;;;;;;;;;;4532970;28;25964;-63
2021/10/21 01:22:02;;;;;;;2.50;0.98;;;;;;;;;;4530149;28;20041;-64
2021/10/21 01:24:12;;;;;;;1.50;0.88;;;;;;;;;;4530668;28;20680;-63
2021/10/21 01:26:23;;;;;;;0.73;0.60;;;;;;;;;;4516611;28;20699;-63
2021/10/21 01:28:33;;;;;;;1.20;0.90;;;;;;;;;;4530111;28;20043;-63
2021/10/21 01:30:43;;;;;;;2.17;0.93;;;;;;;;;;4530951;28;33376;-63
2021/10/21 01:32:58;;;;;;;1.10;0.70;;;;;;;;;;4532384;28;20048;-63
2021/10/21 01:35:09;;;;;;;2.20;0.85;;;;;;;;;;4516839;28;20095;-63
2021/10/21 01:37:19;;;;;;;1.03;0.73;;;;;;;;;;4532094;28;20076;-64
2021/10/21 01:39:30;;;;;;;0.97;0.80;;;;;;;;;;4517116;28;20055;-63
2021/10/21 01:41:41;;;;;;;2.20;1.00;;;;;;;;;;4530269;28;20033;-63
2021/10/21 01:43:51;;;;;;;1.13;0.70;;;;;;;;;;4533824;28;33389;-63
2021/10/21 01:46:01;;;;;;;0.93;0.70;;;;;;;;;;4531962;28;20048;-63
2021/10/21 01:48:12;;;;;;;0.80;0.70;;;;;;;;;;4520219;28;20494;-63
2021/10/21 01:50:23;;;;;;;0.60;0.60;;;;;;;;;;4530588;28;20033;-63
2021/10/21 01:52:34;;;;;;;1.25;0.80;;;;;;;;;;4528648;28;20148;-63
2021/10/21 01:54:44;;;;;;;1.63;0.90;;;;;;;;;;4531997;28;20579;-63
2021/10/21 01:56:55;;;;;;;1.23;0.80;;;;;;;;;;4531569;28;20504;-63
2021/10/21 01:59:05;;;;;;;1.23;0.90;;;;;;;;;;4531240;28;20030;-63
2021/10/21 02:01:16;;;;;;;1.30;0.80;;;;;;;;;;4530320;28;20037;-63
2021/10/21 02:03:26;;;;;;;1.20;1.00;;;;;;;;;;4518043;28;20149;-63
2021/10/21 02:05:37;;;;;;;0.73;0.73;;;;;;;;;;4533553;28;20028;-63
2021/10/21 02:07:47;;;;;;;1.60;0.90;;;;;;;;;;4530061;28;20519;-63
2021/10/21 02:09:58;;;;;;;2.40;0.80;;;;;;;;;;4530072;28;20064;-63
2021/10/21 02:12:08;;;;;;;1.30;0.80;;;;;;;;;;4530744;28;20500;-64
2021/10/21 02:14:19;;;;;;;1.53;0.70;;;;;;;;;;4528438;28;20087;-63
2021/10/21 02:16:29;;;;;;;1.00;0.70;;;;;;;;;;4531507;28;20052;-63
2021/10/21 02:18:39;;;;;;;0.63;0.50;;;;;;;;;;4531837;28;20030;-63
2021/10/21 02:20:50;;;;;;;0.90;0.60;;;;;;;;;;4531827;28;20131;-63
2021/10/21 02:23:00;;;;;;;0.60;0.50;;;;;;;;;;4535248;28;20044;-63
2021/10/21 02:25:12;;;;;;;0.80;0.70;;;;;;;;;;4533049;28;20118;-64
2021/10/21 02:27:22;;;;;;;0.70;0.70;;;;;;;;;;4518343;28;20759;-63
2021/10/21 02:29:33;;;;;;;1.40;0.70;;;;;;;;;;4533832;28;20037;-63
2021/10/21 02:31:44;;;;;;;0.95;0.73;;;;;;;;;;4519676;28;20041;-63
2021/10/21 02:33:54;;;;;;;0.80;0.70;;;;;;;;;;4536132;28;20037;-63
2021/10/21 02:36:05;;;;;;;0.67;0.60;;;;;;;;;;4534921;28;20098;-63
2021/10/21 02:38:15;;;;;;;0.50;0.50;;;;;;;;;;4531767;28;20182;-63
2021/10/21 02:40:25;;;;;;;1.70;0.60;;;;;;;;;;4535199;28;34724;-63
2021/10/21 02:42:36;;;;;;;0.80;0.70;;;;;;;;;;4535445;28;20036;-63
2021/10/21 02:44:47;;;;;;;2.25;0.73;;;;;;;;;;4532915;28;20484;-63
2021/10/21 02:46:58;;;;;;;0.50;0.50;;;;;;;;;;4533391;28;20029;-63
2021/10/21 02:49:08;;;;;;;0.80;0.60;;;;;;;;;;4536289;28;20040;-63
2021/10/21 02:51:19;;;;;;;0.43;0.40;;;;;;;;;;4523941;28;20044;-64
2021/10/21 02:53:29;;;;;;;1.03;0.70;;;;;;;;;;4532378;28;27924;-63
2021/10/21 02:55:39;;;;;;;1.90;0.63;;;;;;;;;;4533595;28;34976;-63
2021/10/21 02:57:50;;;;;;;0.50;0.50;;;;;;;;;;4534352;28;20038;-63
2021/10/21 03:00:00;;;;;;;2.47;0.60;;;;;;;;;;4533482;28;20096;-63
2021/10/21 03:02:11;;;;;;;0.40;0.40;;;;;;;;;;4534074;28;20481;-63
2021/10/21 03:04:21;;;;;;;0.87;0.33;;;;;;;;;;4532278;28;34176;-63
2021/10/21 03:06:31;;;;;;;1.37;0.70;;;;;;;;;;4516476;28;20038;-63
2021/10/21 03:08:42;;;;;;;1.20;0.50;;;;;;;;;;4522691;28;20029;-63
2021/10/21 03:10:52;;;;;;;0.40;0.37;;;;;;;;;;4536176;28;30458;-63
2021/10/21 03:13:04;;;;;;;1.20;0.57;;;;;;;;;;4522354;28;20087;-63
2021/10/21 03:15:14;;;;;;;0.60;0.60;;;;;;;;;;4520973;28;20100;-63
2021/10/21 03:17:25;;;;;;;0.77;0.40;;;;;;;;;;4536645;28;20535;-63
2021/10/21 03:19:35;;;;;;;1.07;0.50;;;;;;;;;;4535405;28;35697;-63
2021/10/21 03:21:46;;;;;;;2.00;0.50;;;;;;;;;;4521998;28;20029;-63
2021/10/21 03:23:56;;;;;;;3.30;0.50;;;;;;;;;;4531957;28;20029;-63
2021/10/21 03:26:07;;;;;;;0.70;0.40;;;;;;;;;;4533544;28;20045;-63
2021/10/21 03:28:18;;;;;;;1.33;0.40;;;;;;;;;;4535759;28;20041;-63
2021/10/21 03:30:28;;;;;;;1.10;0.40;;;;;;;;;;4535406;28;20033;-63
2021/10/21 03:32:38;;;;;;;0.93;0.40;;;;;;;;;;4520147;28;20041;-63
2021/10/21 03:34:49;;;;;;;0.90;0.30;;;;;;;;;;4534604;28;20037;-63
2021/10/21 03:36:59;;;;;;;0.73;0.30;;;;;;;;;;4533410;28;20041;-63
2021/10/21 03:39:10;;;;;;;0.73;0.40;;;;;;;;;;4534204;28;20404;-63
2021/10/21 03:41:20;;;;;;;2.07;0.63;;;;;;;;;;4534658;28;23214;-63
2021/10/21 03:43:31;;;;;;;0.87;0.50;;;;;;;;;;4522028;28;20046;-63
2021/10/21 03:45:42;;;;;;;0.80;0.40;;;;;;;;;;4534445;28;24922;-63
2021/10/21 03:47:52;;;;;;;1.05;0.40;;;;;;;;;;4532681;28;20128;-63
2021/10/21 03:50:03;;;;;;;1.00;0.40;;;;;;;;;;4535724;28;20029;-63
2021/10/21 03:52:13;;;;;;;0.93;0.60;;;;;;;;;;4533193;28;20079;-63
2021/10/21 03:54:24;;;;;;;1.33;0.50;;;;;;;;;;4532180;28;20037;-63
2021/10/21 03:56:34;;;;;;;0.60;0.40;;;;;;;;;;4533478;28;20464;-63
2021/10/21 03:58:45;;;;;;;0.70;0.33;;;;;;;;;;4532604;28;20025;-64
2021/10/21 04:00:55;;;;;;;0.80;0.57;;;;;;;;;;4535242;28;20049;-63
2021/10/21 04:03:05;;;;;;;0.73;0.40;;;;;;;;;;4516808;28;20934;-63
2021/10/21 04:05:16;;;;;;;0.43;0.30;;;;;;;;;;4517065;28;30430;-63
2021/10/21 04:07:26;;;;;;;0.87;0.37;;;;;;;;;;4526011;28;20096;-64
2021/10/21 04:09:37;;;;;;;1.57;0.47;;;;;;;;;;4535325;28;20037;-63
2021/10/21 04:11:48;;;;;;;1.33;0.50;;;;;;;;;;4522178;28;20459;-63
2021/10/21 04:13:58;;;;;;;0.80;0.50;;;;;;;;;;4534245;28;20382;-63
2021/10/21 04:16:08;;;;;;;0.63;0.33;;;;;;;;;;4534108;28;36656;-63
2021/10/21 04:18:19;;;;;;;1.23;0.43;;;;;;;;;;4532948;28;20044;-63
2021/10/21 04:20:29;;;;;;;0.63;0.40;;;;;;;;;;4519903;28;29662;-63
2021/10/21 04:22:40;;;;;;;2.63;0.40;;;;;;;;;;4531331;28;20116;-63
2021/10/21 04:24:50;;;;;;;0.43;0.40;;;;;;;;;;4533092;28;20057;-62
2021/10/21 04:27:00;;;;;;;1.33;0.50;;;;;;;;;;4531824;28;20045;-63
2021/10/21 04:29:11;;;;;;;1.70;0.50;;;;;;;;;;4530983;28;20041;-63
2021/10/21 04:31:21;;;;;;;1.47;0.97;;;;;;;;;;4532348;28;20115;-63
2021/10/21 04:33:32;;;;;;;1.30;0.60;;;;;;;;;;4517199;28;20105;-63
2021/10/21 04:35:42;;;;;;;0.85;0.40;;;;;;;;;;4519135;28;20040;-63
2021/10/21 04:37:53;;;;;;;0.63;0.37;;;;;;;;;;4532901;28;20033;-63
2021/10/21 04:40:04;;;;;;;1.23;0.50;;;;;;;;;;4534359;28;20060;-63
2021/10/21 04:42:14;;;;;;;0.93;0.50;;;;;;;;;;4533494;28;20477;-63
2021/10/21 04:44:25;;;;;;;0.70;0.33;;;;;;;;;;4517909;28;20034;-63
2021/10/21 04:46:35;;;;;;;0.33;0.33;;;;;;;;;;4533128;28;24721;-64
2021/10/21 04:48:45;;;;;;;0.90;0.50;;;;;;;;;;4530859;28;20037;-63
2021/10/21 04:50:56;;;;;;;2.40;0.50;;;;;;;;;;4521611;28;21091;-63
2021/10/21 04:53:06;;;;;;;1.00;0.47;;;;;;;;;;4533851;28;20048;-63
2021/10/21 04:55:17;;;;;;;1.73;0.43;;;;;;;;;;4516637;28;20069;-63
2021/10/21 04:57:27;;;;;;;2.77;0.50;;;;;;;;;;4533043;28;20087;-63
2021/10/21 04:59:38;;;;;;;1.47;0.50;;;;;;;;;;4531721;28;20983;-63
2021/10/21 05:01:48;;;;;;;0.93;0.30;;;;;;;;;;4531363;28;20132;-63
2021/10/21 05:03:58;;;;;;;1.00;0.40;;;;;;;;;;4531424;28;20486;-63
2021/10/21 05:06:09;;;;;;;0.77;0.43;;;;;;;;;;4531241;28;24738;-63
2021/10/21 05:08:20;;;;;;;0.97;0.40;;;;;;;;;;4531326;28;20036;-63
2021/10/21 05:10:30;;;;;;;1.13;0.30;;;;;;;;;;4530795;28;20036;-63
2021/10/21 05:12:40;;;;;;;1.27;0.43;;;;;;;;;;4533021;28;20098;-64
2021/10/21 05:14:52;;;;;;;1.07;0.70;;;;;;;;;;4533302;28;20126;-63
2021/10/21 05:17:03;;;;;;;0.50;0.30;;;;;;;;;;4520907;28;20508;-63
2021/10/21 05:19:13;;;;;;;0.73;0.40;;;;;;;;;;4531134;28;20037;-63
2021/10/21 05:21:23;;;;;;;0.77;0.40;;;;;;;;;;4533446;28;20468;-64
2021/10/21 05:23:34;;;;;;;0.83;0.30;;;;;;;;;;4505407;28;20044;-63
2021/10/21 05:25:48;;;;;;;0.40;0.30;;;;;;;;;;4534745;28;20033;-63
2021/10/21 05:27:59;;;;;;;1.55;0.40;;;;;;;;;;4517081;28;20034;-63
2021/10/21 05:30:10;;;;;;;0.65;0.50;;;;;;;;;;4533694;28;20064;-63
2021/10/21 05:32:21;;;;;;;0.95;0.40;;;;;;;;;;4534103;28;20116;-64
2021/10/21 05:34:31;;;;;;;0.83;0.40;;;;;;;;;;4530979;28;20052;-63
2021/10/21 05:36:42;;;;;;;0.83;0.40;;;;;;;;;;4519229;28;20046;-63
2021/10/21 05:38:52;;;;;;;0.83;0.50;;;;;;;;;;4528893;28;20091;-63
2021/10/21 05:41:03;;;;;;;1.90;0.40;;;;;;;;;;4531488;28;20493;-63
2021/10/21 05:43:13;;;;;;;1.10;0.33;;;;;;;;;;4530952;28;20067;-63
2021/10/21 05:45:23;;;;;;;0.30;0.30;;;;;;;;;;4521238;28;20063;-63
2021/10/21 05:47:35;;;;;;;0.50;0.37;;;;;;;;;;4532210;28;20116;-63
2021/10/21 05:49:46;;;;;;;0.88;0.30;;;;;;;;;;4519727;28;20130;-63
2021/10/21 05:51:56;;;;;;;0.70;0.50;;;;;;;;;;4516459;28;20079;-63
2021/10/21 05:54:07;;;;;;;0.47;0.30;;;;;;;;;;4530549;28;20037;-63
2021/10/21 05:56:17;;;;;;;0.30;0.30;;;;;;;;;;4531519;28;20543;-64
2021/10/21 05:58:27;;;;;;;0.30;0.30;;;;;;;;;;4524290;28;20029;-63
2021/10/21 06:00:38;;;;;;;1.43;0.40;;;;;;;;;;4520499;28;20058;-64
2021/10/21 06:02:49;;;;;;;1.10;0.40;;;;;;;;;;4531238;28;20038;-63
2021/10/21 06:04:59;;;;;;;1.00;0.40;;;;;;;;;;4533698;28;20292;-64
2021/10/21 06:07:10;;;;;;;0.30;0.20;;;;;;;;;;4536386;28;20044;-64
2021/10/21 06:09:21;;;;;;;0.30;0.30;;;;;;;;;;4533776;28;20493;-64
2021/10/21 06:11:34;;;;;;;0.82;0.40;;;;;;;;;;4535350;28;20117;-64
2021/10/21 06:13:45;;;;;;;0.35;0.30;;;;;;;;;;4519720;28;20044;-64
2021/10/21 06:15:55;;;;;;;0.63;0.30;;;;;;;;;;4534115;28;20036;-63
2021/10/21 06:18:10;;;;;;;0.40;0.40;;;;;;;;;;4534224;28;20584;-64
2021/10/21 06:20:21;;;;;;;0.40;0.30;;;;;;;;;;4522411;28;20042;-63
2021/10/21 06:22:31;;;;;;;0.47;0.20;;;;;;;;;;4535819;28;20588;-64
2021/10/21 06:24:42;;;;;;;0.67;0.40;;;;;;;;;;4535426;28;20211;-64
2021/10/21 06:26:53;;;;;;;0.47;0.20;;;;;;;;;;4534537;28;20149;-64
2021/10/21 06:29:03;;;;;;;0.35;0.30;;;;;;;;;;4522392;28;20030;-64
2021/10/21 06:31:14;;;;;;;1.30;0.40;;;;;;;;;;4532979;28;20578;-64
2021/10/21 06:33:24;;;;;;;0.43;0.30;;;;;;;;;;4533851;28;20164;-64
2021/10/21 06:35:35;;;;;;;0.50;0.27;;;;;;;;;;4535309;28;20060;-64
2021/10/21 06:37:49;;;;;;;1.20;0.30;;;;;;;;;;4535858;28;20087;-64
2021/10/21 06:39:59;;;;;;;0.40;0.20;;;;;;;;;;4535218;28;20323;-64
2021/10/21 06:42:10;;;;;;;0.20;0.20;;;;;;;;;;4532306;28;20041;-63
2021/10/21 06:44:20;;;;;;;0.47;0.30;;;;;;;;;;4532692;28;20124;-63
2021/10/21 06:46:31;;;;;;;0.30;0.30;;;;;;;;;;4534886;28;20533;-63
2021/10/21 06:48:41;;;;;;;0.20;0.20;;;;;;;;;;4534334;28;20032;-63
2021/10/21 06:50:51;;;;;;;1.17;0.40;;;;;;;;;;4535130;28;26774;-63
2021/10/21 06:53:02;;;;;;;0.30;0.30;;;;;;;;;;4531922;28;20064;-63
2021/10/21 06:55:13;;;;;;;0.60;0.20;;;;;;;;;;4531877;28;20030;-63
2021/10/21 06:57:23;;;;;;;0.63;0.25;;;;;;;;;;4534667;28;20033;-63
2021/10/21 06:59:34;;;;;;;0.20;0.20;;;;;;;;;;4533771;28;20045;-63
2021/10/21 07:01:44;;;;;;;0.23;0.23;;;;;;;;;;4530908;28;20056;-63
2021/10/21 07:03:55;;;;;;;0.83;0.20;;;;;;;;;;4523485;28;20037;-63
2021/10/21 07:06:05;;;;;;;0.67;0.20;;;;;;;;;;4533635;28;20386;-63
2021/10/21 07:08:15;;;;;;;0.30;0.30;;;;;;;;;;4530963;28;20028;-63
2021/10/21 07:10:26;;;;;;;0.10;0.10;;;;;;;;;;4533053;28;20088;-63
2021/10/21 07:12:38;;;;;;;0.30;0.30;;;;;;;;;;4534966;28;20385;-63
2021/10/21 07:14:48;;;;;;;0.30;0.20;;;;;;;;;;4532908;28;20037;-63
2021/10/21 07:16:58;;;;;;;0.30;0.30;;;;;;;;;;4535446;28;20456;-63
2021/10/21 07:19:10;;;;;;;0.27;0.27;;;;;;;;;;4519796;28;20100;-63
2021/10/21 07:21:21;;;;;;;0.20;0.20;;;;;;;;;;4532091;28;20037;-64
2021/10/21 07:23:31;;;;;;;0.30;0.20;;;;;;;;;;4508703;28;20038;-64
2021/10/21 07:25:42;;;;;;;0.20;0.20;;;;;;;;;;4532981;28;20043;-64
2021/10/21 07:27:52;;;;;;;0.40;0.30;;;;;;;;;;4533152;28;23187;-64
2021/10/21 07:30:04;;;;;;;0.20;0.20;;;;;;;;;;4500299;28;20048;-63
2021/10/21 07:32:15;;;;;;;0.43;0.40;;;;;;;;;;4533706;28;20814;-64
2021/10/21 07:34:25;;;;;;;0.20;0.20;;;;;;;;;;4536191;28;20238;-64
2021/10/21 07:36:36;;;;;;;1.07;0.30;;;;;;;;;;4520573;28;20520;-63
2021/10/21 07:38:46;;;;;;;0.30;0.30;;;;;;;;;;4531835;28;20041;-63
2021/10/21 07:40:56;;;;;;;0.40;0.30;;;;;;;;;;4521100;28;20045;-64
2021/10/21 07:43:13;;;;;;;0.53;0.50;;;;;;;;;;4532982;28;20089;-63
2021/10/21 07:45:24;;;;;;;0.38;0.30;;;;;;;;;;4531395;28;20958;-64
2021/10/21 07:47:35;;;;;;;0.43;0.30;;;;;;;;;;4530833;28;20037;-64
2021/10/21 07:49:46;;;;;;;0.70;0.40;;;;;;;;;;4532256;28;20017;-63
2021/10/21 07:51:57;;;;;;;0.40;0.40;;;;;;;;;;4529069;28;23483;-64
2021/10/21 07:54:08;;;;;;;0.22;0.22;;;;;;;;;;4530429;28;20056;-65
2021/10/21 07:56:18;;;;;;;1.10;0.40;;;;;;;;;;4521849;28;20258;-64
2021/10/21 07:58:28;;;;;;;0.20;0.20;;;;;;;;;;4530849;28;27549;-64
2021/10/21 08:00:39;;;;;;;0.30;0.30;;;;;;;;;;4525911;28;20050;-64
2021/10/21 08:02:50;;;;;;;0.20;0.20;;;;;;;;;;4533304;28;20484;-64
2021/10/21 08:05:00;;;;;;;0.50;0.37;;;;;;;;;;4516241;28;20030;-64
2021/10/21 08:07:11;;;;;;;0.20;0.20;;;;;;;;;;4530394;28;20021;-65
2021/10/21 08:09:22;;;;;;;0.33;0.30;;;;;;;;;;4516887;28;20041;-65
2021/10/21 08:11:32;;;;;;;;;;;;;;;;;;4531791;28;20190;-65
2021/10/21 08:13:43;;;;;;;0.10;0.10;;;;;;;;;;4516606;28;19957;-63
2021/10/21 08:15:53;;;;;;;0.20;0.20;;;;;;;;;;4530705;28;20538;-66
2021/10/21 08:18:04;;;;;;;0.20;0.20;;;;;;;;;;4523479;28;20041;-65
2021/10/21 08:20:14;;;;;;;1.50;0.27;;;;;;;;;;4530237;28;20087;-64
2021/10/21 08:22:26;;;;;;;0.20;0.20;;;;;;;;;;4521399;28;20040;-65
2021/10/21 08:24:36;;;;;;;0.40;0.30;;;;;;;;;;4532610;28;20021;-65
2021/10/21 08:26:48;;;;;;;0.67;0.30;;;;;;;;;;4531749;28;20017;-64
2021/10/21 08:29:01;;;;;;;0.25;0.20;;;;;;;;;;4531344;28;20061;-65
2021/10/21 08:31:11;;;;;;;0.38;0.20;;;;;;;;;;4516339;28;20045;-66
2021/10/21 08:33:21;;;;;;;0.47;0.20;;;;;;;;;;4532022;28;20112;-64
2021/10/21 08:35:33;;;;;;;0.47;0.30;;;;;;;;;;4530365;28;20060;-64
2021/10/21 08:37:45;;;;;;;0.20;0.20;;;;;;;;;;4532299;28;20067;-63
2021/10/21 08:39:56;;;;;;;0.40;0.30;;;;;;;;;;4535325;28;20034;-63
2021/10/21 08:42:06;;;;;;;0.23;0.20;;;;;;;;;;4531546;28;20025;-63
2021/10/21 08:44:17;;;;;;;0.30;0.30;;;;;;;;;;4532527;28;20487;-62
2021/10/21 08:46:27;;;;;;;1.50;0.43;;;;;;;;;;4530512;28;20029;-63
2021/10/21 08:48:41;;;;;;;0.45;0.30;;;;;;;;;;4507991;28;20628;-62
2021/10/21 08:50:51;;;;;;;0.88;0.30;;;;;;;;;;4533234;28;20025;-63
2021/10/21 08:53:04;;;;;;;0.30;0.20;;;;;;;;;;4516385;28;20038;-64
2021/10/21 08:55:15;;;;;;;0.93;0.40;;;;;;;;;;4515825;28;20254;-63
2021/10/21 08:57:26;;;;;;;0.57;0.47;;;;;;;;;;4517625;28;20018;-64
2021/10/21 08:59:38;;;;;;;1.38;0.50;;;;;;;;;;4516672;28;20109;-63
2021/10/21 09:02:01;;;;;;;0.95;0.60;;;;;;;;;;4533496;28;20040;-64
2021/10/21 09:04:22;;;;;;;1.08;0.40;;;;;;;;;;4531124;28;20029;-64
2021/10/21 09:08:52;;;;;;;0.85;0.50;;;;;;;;;;4514716;28;20060;-64
2021/10/21 09:11:04;;;;;;;1.60;0.53;;;;;;;;;;4531920;28;20045;-64
2021/10/21 09:13:24;;;;;;;;;;;;;;;;;;4532968;28;20556;-63
2021/10/21 09:15:35;;;;;;;1.23;0.50;;;;;;;;;;4530852;28;19958;-64
2021/10/21 09:17:47;;;;;;;1.25;0.50;;;;;;;;;;4517125;28;20027;-65
2021/10/21 09:19:57;;;;;;;0.68;0.40;;;;;;;;;;4532114;28;20888;-65
2021/10/21 09:22:28;;;;;;;2.00;0.60;;;;;;;;;;4524276;28;20039;-66
2021/10/21 09:24:41;;;;;;;2.10;0.80;;;;;;;;;;4530260;28;20500;-65
2021/10/21 09:27:12;;;;;;;1.50;0.60;;;;;;;;;;4521531;28;20626;-65
2021/10/21 09:29:24;;;;;;;1.88;0.77;;;;;;;;;;4515832;28;20080;-65
2021/10/21 09:31:34;;;;;;;;;;;;;;;;;;4513420;28;20030;-65
2021/10/21 09:33:49;;;;;;;1.33;0.80;;;;;;;;;;4528300;28;19909;-65
2021/10/21 09:36:00;;;;;;;2.13;0.70;;;;;;;;;;4530203;28;20584;-65
2021/10/21 09:38:18;;;;;;;2.55;0.80;;;;;;;;;;4529128;28;20025;-65
2021/10/21 09:40:36;;;;;;;2.28;0.95;;;;;;;;;;4529591;28;20076;-65
2021/10/21 09:42:55;;;;;;;1.92;0.80;;;;;;;;;;4532134;28;20036;-65
2021/10/21 09:45:18;;;;;;;1.98;0.90;;;;;;;;;;4532287;28;20167;-64
2021/10/21 09:47:28;;;;;;;2.22;0.80;;;;;;;;;;4530889;28;20032;-63
2021/10/21 09:49:39;;;;;;;2.33;0.73;;;;;;;;;;4531890;28;20492;-63
2021/10/21 09:51:50;;;;;;;3.38;1.00;;;;;;;;;;4517773;28;20064;-63
2021/10/21 09:54:04;;;;;;;4.00;0.93;;;;;;;;;;4517400;28;20037;-64
2021/10/21 09:56:14;;;;;;;2.25;0.80;;;;;;;;;;4529613;28;20029;-63
2021/10/21 09:58:35;;;;;;;1.83;0.77;;;;;;;;;;4528650;28;20025;-63
2021/10/21 10:00:46;;;;;;;2.35;0.75;;;;;;;;;;4513701;28;20155;-63
2021/10/21 10:03:07;;;;;;;2.33;0.90;;;;;;;;;;4528017;28;20029;-64
2021/10/21 10:05:17;;;;;;;2.90;0.98;;;;;;;;;;4512071;28;20795;-64
2021/10/21 10:07:28;;;;;;;1.73;0.80;;;;;;;;;;4529209;28;20317;-64
2021/10/21 10:09:39;;;;;;;2.08;0.80;;;;;;;;;;4512680;28;20030;-63
2021/10/21 10:11:50;;;;;;;2.13;0.85;;;;;;;;;;4529690;28;20020;-63
2021/10/21 10:14:01;;;;;;;2.53;0.77;;;;;;;;;;4515833;28;20105;-63
2021/10/21 10:16:12;;;;;;;2.50;0.80;;;;;;;;;;4529521;28;20024;-64
2021/10/21 10:18:24;;;;;;;2.47;0.77;;;;;;;;;;4529147;28;20418;-64
2021/10/21 10:20:35;;;;;;;2.38;1.00;;;;;;;;;;4515030;28;20046;-64
2021/10/21 10:22:46;;;;;;;1.98;0.75;;;;;;;;;;4502296;28;20033;-64
2021/10/21 10:24:57;;;;;;;3.25;0.95;;;;;;;;;;4517164;28;20026;-64
2021/10/21 10:27:22;;;;;;;1.85;0.80;;;;;;;;;;4527022;28;20542;-64
2021/10/21 10:29:32;;;;;;;2.05;0.90;;;;;;;;;;4528631;28;20029;-63
2021/10/21 10:31:47;;;;;;;2.13;1.07;;;;;;;;;;4528674;28;20393;-64
2021/10/21 10:33:57;;;;;;;1.25;0.75;;;;;;;;;;4514099;28;20018;-63
2021/10/21 10:36:23;;;;;;;2.87;0.63;;;;;;;;;;4532243;28;20029;-64
2021/10/21 10:38:35;;;;;;;2.58;1.10;;;;;;;;;;4533129;28;20641;-64
2021/10/21 10:40:46;;;;;;;;;;;;;;;;;;4529208;28;20033;-64
2021/10/21 10:42:58;;;;;;;3.42;1.00;;;;;;;;;;4531059;28;20677;-64
2021/10/21 10:45:12;;;;;;;2.63;1.05;;;;;;;;;;4533411;28;20391;-63
2021/10/21 10:47:48;;;;;;;1.90;0.73;;;;;;;;;;4515289;28;20646;-64
2021/10/21 10:49:58;;;;;;;1.67;0.60;;;;;;;;;;4531767;28;20147;-64
2021/10/21 10:52:11;;;;;;;3.63;1.10;;;;;;;;;;4523773;28;25795;-64
2021/10/21 10:54:51;;;;;;;1.95;0.70;;;;;;;;;;4521844;28;20505;-64
2021/10/21 10:57:01;;;;;;;2.63;0.90;;;;;;;;;;4531765;28;20498;-64
2021/10/21 10:59:19;;;;;;;2.03;0.70;;;;;;;;;;4534436;28;20021;-64
2021/10/21 11:01:30;;;;;;;2.75;0.70;;;;;;;;;;4517196;28;20092;-63
2021/10/21 11:03:43;;;;;;;1.63;0.70;;;;;;;;;;4533460;28;20096;-64
2021/10/21 11:05:55;;;;;;;4.10;1.10;;;;;;;;;;4530817;28;20037;-64
2021/10/21 11:08:06;;;;;;;2.72;1.13;;;;;;;;;;4517208;28;20071;-63
2021/10/21 11:10:18;;;;;;;1.70;0.60;;;;;;;;;;4517001;28;20855;-64
2021/10/21 11:12:28;;;;;;;1.98;0.75;;;;;;;;;;4531924;28;20781;-63
2021/10/21 11:14:43;;;;;;;2.33;0.80;;;;;;;;;;4517868;28;20124;-64
2021/10/21 11:16:54;;;;;;;1.77;0.60;;;;;;;;;;4532010;28;20592;-64
2021/10/21 11:19:04;;;;;;;1.75;0.80;;;;;;;;;;4531058;28;20144;-64
2021/10/21 11:21:45;;;;;;;1.67;0.70;;;;;;;;;;4515741;28;20557;-63
2021/10/21 11:23:55;;;;;;;2.60;0.80;;;;;;;;;;4511955;28;20766;-63
2021/10/21 11:26:06;;;;;;;3.37;0.97;;;;;;;;;;4532920;28;20037;-63
2021/10/21 11:28:25;;;;;;;2.43;1.10;;;;;;;;;;4530115;28;20079;-64
2021/10/21 11:30:39;;;;;;;2.33;0.98;;;;;;;;;;4532517;28;20207;-63
2021/10/21 11:32:50;;;;;;;1.75;0.88;;;;;;;;;;4521566;28;20033;-63
2021/10/21 11:35:12;;;;;;;1.77;0.70;;;;;;;;;;4519684;28;20034;-64
2021/10/21 11:37:33;;;;;;;;;;;;;;;;;;4522189;28;20136;-64
2021/10/21 11:39:43;;;;;;;1.90;0.60;;;;;;;;;;4530146;28;20432;-64
2021/10/21 11:41:54;;;;;;;0.83;0.50;;;;;;;;;;4524500;28;20033;-64
2021/10/21 11:44:04;;;;;;;1.50;0.70;;;;;;;;;;4520925;28;20037;-64
2021/10/21 11:46:20;;;;;;;1.33;0.60;;;;;;;;;;4532543;28;21305;-64
2021/10/21 11:48:36;;;;;;;1.63;0.60;;;;;;;;;;4515920;28;20026;-66
2021/10/21 11:50:49;;;;;;;1.70;0.50;;;;;;;;;;4520432;28;20072;-64
2021/10/21 11:53:00;;;;;;;1.92;0.70;;;;;;;;;;4523021;28;20032;-64
2021/10/21 11:55:19;;;;;;;2.28;0.60;;;;;;;;;;4517425;28;20553;-63
2021/10/21 11:57:32;;;;;;;2.15;0.57;;;;;;;;;;4518694;28;20029;-64
2021/10/21 11:59:44;;;;;;;1.48;0.50;;;;;;;;;;4531380;28;20017;-64
2021/10/21 12:01:54;;;;;;;0.75;0.55;;;;;;;;;;4532540;28;20132;-64
2021/10/21 12:04:06;;;;;;;0.63;0.53;;;;;;;;;;4516661;28;20539;-63
2021/10/21 12:06:17;;;;;;;1.08;0.52;;;;;;;;;;4532465;28;20027;-64
2021/10/21 12:08:27;;;;;;;1.83;0.60;;;;;;;;;;4532977;28;20029;-64
2021/10/21 12:10:40;;;;;;;2.17;0.80;;;;;;;;;;4516675;28;20026;-64
2021/10/21 12:12:51;;;;;;;2.65;0.80;;;;;;;;;;4532888;28;20560;-63
2021/10/21 12:15:02;;;;;;;1.90;0.63;;;;;;;;;;4531856;28;20041;-64
2021/10/21 12:17:13;;;;;;;1.40;0.47;;;;;;;;;;4515181;28;20022;-64
2021/10/21 12:19:24;;;;;;;1.77;0.60;;;;;;;;;;4532903;28;20601;-64
2021/10/21 12:21:37;;;;;;;1.42;0.63;;;;;;;;;;4515119;28;20190;-63
2021/10/21 12:23:49;;;;;;;2.25;0.80;;;;;;;;;;4515917;28;20022;-64
2021/10/21 12:26:07;;;;;;;1.25;0.68;;;;;;;;;;4531108;28;20032;-64
2021/10/21 12:28:19;;;;;;;1.73;1.00;;;;;;;;;;4531660;28;20048;-64
2021/10/21 12:30:35;;;;;;;1.42;0.63;;;;;;;;;;4529431;28;20586;-64
2021/10/21 12:32:46;;;;;;;1.55;0.68;;;;;;;;;;4532321;28;20036;-64
2021/10/21 12:35:04;;;;;;;1.67;0.70;;;;;;;;;;4530507;28;20080;-63
2021/10/21 12:37:17;;;;;;;1.15;0.45;;;;;;;;;;4512623;28;20021;-63
2021/10/21 12:39:32;;;;;;;2.17;0.82;;;;;;;;;;4529481;28;20065;-64
2021/10/21 12:42:02;;;;;;;2.95;0.65;;;;;;;;;;4535278;28;20108;-64
2021/10/21 12:44:16;;;;;;;1.90;0.63;;;;;;;;;;4532023;28;20119;-64
2021/10/21 12:46:28;;;;;;;1.48;0.60;;;;;;;;;;4531405;28;20026;-64
2021/10/21 12:48:38;;;;;;;1.05;0.50;;;;;;;;;;4531389;28;20029;-64
2021/10/21 12:50:51;;;;;;;1.80;0.70;;;;;;;;;;4516663;28;20039;-64
2021/10/21 12:53:01;;;;;;;2.75;0.73;;;;;;;;;;4504807;28;20065;-64
2021/10/21 12:55:23;;;;;;;1.00;0.53;;;;;;;;;;4532878;28;20107;-63
2021/10/21 12:57:54;;;;;;;1.45;0.40;;;;;;;;;;4513124;28;21085;-64
2021/10/21 13:00:06;;;;;;;0.82;0.50;;;;;;;;;;4529846;28;20032;-65
2021/10/21 13:02:16;;;;;;;1.20;0.50;;;;;;;;;;4531331;28;20163;-65
2021/10/21 13:04:49;;;;;;;1.17;0.53;;;;;;;;;;4532373;28;20108;-64
2021/10/21 13:07:00;;;;;;;1.25;0.60;;;;;;;;;;4530216;28;20021;-64
2021/10/21 13:09:10;;;;;;;1.07;0.50;;;;;;;;;;4516519;28;20037;-65
2021/10/21 13:11:23;;;;;;;1.03;0.40;;;;;;;;;;4523388;28;20397;-65
2021/10/21 13:13:36;;;;;;;1.52;0.52;;;;;;;;;;4520422;28;20806;-64
2021/10/21 13:15:46;;;;;;;1.58;1.10;;;;;;;;;;4513414;28;20133;-65